Levering, Michigan
Current Conditions -  °F | °C
As of 3:54 AM on Saturday 29 Nov 2014 (Local Time) from KPLN Reporting Station
Overcast Overcast  
Wind Chill: 16°   Ceiling: 1600
Heat Index: 25°   Visibility: 10mi
Dew Point: 21°   Wind: 8mph
Humidity: 85%   Direction: 150°SSE
Pressure: 29.9"   Gusts: NA
Location:  45.64°N, 84.79°W
Report Text: KPLN 290854Z AUTO 15007KT 10SM BKN016 OVC022 M04/M06 A2990 RMK AO2 SLP136 T10391061 58012
Loading
Personal Weather Stations






























Interactive Weather Map New forecast layout! Learn more

10-Day Weather Forecast

Advertisements
Track Severe Weather on mobile